Time,TemperatureF,DewpointF,PressureIn,WindDirection,WindDirectionDegrees,WindSpeedMPH,WindSpeedGustMPH,Humidity,HourlyPrecipIn,Conditions,Clouds,dailyrainin,SoftwareType,DateUTC
2013-08-08 00:04:00,82.6,70.0,29.85,SE,137,3.0,-999.0,65,-99.99,,,0.00,weatherlink.com 1.10,2013-08-08 06:04:00,
2013-08-08 00:19:00,82.1,69.0,29.85,ESE,117,0.0,-999.0,65,-99.99,,,0.00,weatherlink.com 1.10,2013-08-08 06:19:00,
2013-08-08 00:34:00,81.6,69.0,29.85,ESE,114,0.0,-999.0,65,-99.99,,,0.00,weatherlink.com 1.10,2013-08-08 06:34:00,
2013-08-08 00:49:00,81.1,69.0,29.84,SSW,206,0.0,-999.0,66,-99.99,,,0.00,weatherlink.com 1.10,2013-08-08 06:49:00,
2013-08-08 01:04:00,80.6,69.0,29.84,SSW,207,0.0,-999.0,67,-99.99,,,0.00,weatherlink.com 1.10,2013-08-08 07:04:00,
2013-08-08 01:19:00,80.0,68.0,29.84,SSW,207,0.0,-999.0,67,-99.99,,,0.00,weatherlink.com 1.10,2013-08-08 07:19:00,
2013-08-08 01:34:00,79.2,68.0,29.85,SSW,207,0.0,-999.0,69,-99.99,,,0.00,weatherlink.com 1.10,2013-08-08 07:34:00,
2013-08-08 01:49:00,78.7,69.0,29.85,SSW,207,0.0,-999.0,71,-99.99,,,0.00,weatherlink.com 1.10,2013-08-08 07:49:00,
2013-08-08 02:04:00,78.6,68.0,29.85,ESE,119,0.0,-999.0,71,-99.99,,,0.00,weatherlink.com 1.10,2013-08-08 08:04:00,
2013-08-08 02:19:00,78.2,68.0,29.84,SE,145,0.0,-999.0,71,-99.99,,,0.00,weatherlink.com 1.10,2013-08-08 08:19:00,
2013-08-08 02:34:00,77.7,68.0,29.84,SSE,151,0.0,-999.0,72,-99.99,,,0.00,weatherlink.com 1.10,2013-08-08 08:34:00,
2013-08-08 02:49:00,77.2,68.0,29.83,SE,144,0.0,-999.0,73,-99.99,,,0.00,weatherlink.com 1.10,2013-08-08 08:49:00,
2013-08-08 03:04:00,76.8,68.0,29.82,SE,144,0.0,-999.0,74,-99.99,,,0.00,weatherlink.com 1.10,2013-08-08 09:04:00,
2013-08-08 03:19:00,76.4,68.0,29.82,SE,144,0.0,-999.0,75,-99.99,,,0.00,weatherlink.com 1.10,2013-08-08 09:19:00,
2013-08-08 03:34:00,76.0,68.0,29.82,SE,144,0.0,-999.0,75,-99.99,,,0.00,weatherlink.com 1.10,2013-08-08 09:34:00,
2013-08-08 03:49:00,75.7,68.0,29.82,SW,225,0.0,-999.0,76,-99.99,,,0.00,weatherlink.com 1.10,2013-08-08 09:49:00,
2013-08-08 04:04:00,75.4,68.0,29.82,SW,225,0.0,-999.0,77,-99.99,,,0.00,weatherlink.com 1.10,2013-08-08 10:04:00,
2013-08-08 04:19:00,75.0,68.0,29.83,SW,225,0.0,-999.0,78,-99.99,,,0.00,weatherlink.com 1.10,2013-08-08 10:19:00,
2013-08-08 04:34:00,74.6,68.0,29.83,SE,146,0.0,-999.0,79,-99.99,,,0.00,weatherlink.com 1.10,2013-08-08 10:34:00,
2013-08-08 04:49:00,74.3,68.0,29.83,SW,217,0.0,-999.0,80,-99.99,,,0.00,weatherlink.com 1.10,2013-08-08 10:49:00,
2013-08-08 05:04:00,74.0,68.0,29.84,WSW,246,0.0,-999.0,81,-99.99,,,0.00,weatherlink.com 1.10,2013-08-08 11:04:00,
2013-08-08 05:19:00,73.7,68.0,29.84,SE,136,0.0,-999.0,81,-99.99,,,0.00,weatherlink.com 1.10,2013-08-08 11:19:00,
2013-08-08 05:34:00,73.4,68.0,29.84,WSW,251,0.0,-999.0,82,-99.99,,,0.00,weatherlink.com 1.10,2013-08-08 11:34:00,
2013-08-08 05:49:00,73.1,67.0,29.84,WSW,248,0.0,-999.0,82,-99.99,,,0.00,weatherlink.com 1.10,2013-08-08 11:49:00,
2013-08-08 06:04:00,72.8,67.0,29.84,SW,222,0.0,-999.0,83,-99.99,,,0.00,weatherlink.com 1.10,2013-08-08 12:04:00,
2013-08-08 06:19:00,72.7,67.0,29.84,SW,221,0.0,-999.0,83,-99.99,,,0.00,weatherlink.com 1.10,2013-08-08 12:19:00,
2013-08-08 06:34:00,72.7,68.0,29.84,SW,221,0.0,-999.0,84,-99.99,,,0.00,weatherlink.com 1.10,2013-08-08 12:34:00,
2013-08-08 06:49:00,73.0,68.0,29.85,WSW,245,0.0,-999.0,83,-99.99,,,0.00,weatherlink.com 1.10,2013-08-08 12:49:00,
2013-08-08 07:04:00,73.4,68.0,29.85,SW,226,0.0,-999.0,83,-99.99,,,0.00,weatherlink.com 1.10,2013-08-08 13:04:00,
2013-08-08 07:19:00,74.5,68.0,29.86,SW,225,0.0,-999.0,81,-99.99,,,0.00,weatherlink.com 1.10,2013-08-08 13:19:00,
2013-08-08 07:34:00,75.5,69.0,29.86,SSE,165,4.0,-999.0,79,-99.99,,,0.00,weatherlink.com 1.10,2013-08-08 13:34:00,
2013-08-08 07:49:00,76.5,69.0,29.87,SSW,202,0.0,-999.0,77,-99.99,,,0.00,weatherlink.com 1.10,2013-08-08 13:49:00,
2013-08-08 08:04:00,77.1,69.0,29.87,SSW,198,0.0,-999.0,75,-99.99,,,0.00,weatherlink.com 1.10,2013-08-08 14:04:00,
2013-08-08 08:19:00,77.6,68.0,29.87,South,170,4.0,-999.0,73,-99.99,,,0.00,weatherlink.com 1.10,2013-08-08 14:19:00,
2013-08-08 08:34:00,78.0,68.0,29.87,SW,226,0.0,-999.0,72,-99.99,,,0.00,weatherlink.com 1.10,2013-08-08 14:34:00,
2013-08-08 08:49:00,79.3,69.0,29.86,SSW,209,2.0,-999.0,70,-99.99,,,0.00,weatherlink.com 1.10,2013-08-08 14:49:00,
2013-08-08 09:04:00,80.0,69.0,29.86,SSE,163,0.0,-999.0,68,-99.99,,,0.00,weatherlink.com 1.10,2013-08-08 15:04:00,
2013-08-08 09:19:00,81.0,69.0,29.87,SW,218,1.0,-999.0,66,-99.99,,,0.00,weatherlink.com 1.10,2013-08-08 15:19:00,
2013-08-08 09:34:00,81.9,69.0,29.87,SSE,166,0.0,-999.0,64,-99.99,,,0.00,weatherlink.com 1.10,2013-08-08 15:34:00,
2013-08-08 09:49:00,83.2,68.0,29.86,WSW,248,0.0,-999.0,61,-99.99,,,0.00,weatherlink.com 1.10,2013-08-08 15:49:00,
2013-08-08 10:04:00,85.1,70.0,29.87,South,180,0.0,-999.0,60,-99.99,,,0.00,weatherlink.com 1.10,2013-08-08 16:04:00,
2013-08-08 10:19:00,85.9,69.0,29.86,SSE,150,2.0,-999.0,58,-99.99,,,0.00,weatherlink.com 1.10,2013-08-08 16:19:00,
2013-08-08 10:34:00,87.5,69.0,29.86,SSW,197,0.0,-999.0,54,-99.99,,,0.00,weatherlink.com 1.10,2013-08-08 16:34:00,
2013-08-08 10:49:00,88.5,69.0,29.86,South,190,0.0,-999.0,52,-99.99,,,0.00,weatherlink.com 1.10,2013-08-08 16:49:00,
2013-08-08 11:19:00,91.1,68.0,29.85,SW,232,0.0,-999.0,47,-99.99,,,0.00,weatherlink.com 1.10,2013-08-08 17:19:00,
2013-08-08 11:34:00,92.2,67.0,29.85,East,99,3.0,-999.0,44,-99.99,,,0.00,weatherlink.com 1.10,2013-08-08 17:34:00,
2013-08-08 11:49:00,93.6,67.0,29.84,ESE,120,1.0,-999.0,42,-99.99,,,0.00,weatherlink.com 1.10,2013-08-08 17:49:00,
2013-08-08 12:04:00,93.5,64.0,29.84,ESE,120,0.0,-999.0,37,-99.99,,,0.00,weatherlink.com 1.10,2013-08-08 18:04:00,
2013-08-08 12:19:00,95.3,64.0,29.84,ESE,122,0.0,-999.0,35,-99.99,,,0.00,weatherlink.com 1.10,2013-08-08 18:19:00,
2013-08-08 12:34:00,95.9,66.0,29.83,ESE,109,0.0,-999.0,37,-99.99,,,0.00,weatherlink.com 1.10,2013-08-08 18:34:00,
2013-08-08 12:49:00,96.7,64.0,29.83,East,88,4.0,-999.0,34,-99.99,,,0.00,weatherlink.com 1.10,2013-08-08 18:49:00,
2013-08-08 13:04:00,97.4,62.0,29.82,SSE,148,3.0,-999.0,31,-99.99,,,0.00,weatherlink.com 1.10,2013-08-08 19:04:00,
2013-08-08 13:19:00,98.4,61.0,29.82,South,170,0.0,-999.0,29,-99.99,,,0.00,weatherlink.com 1.10,2013-08-08 19:19:00,
2013-08-08 13:34:00,99.6,62.0,29.82,SW,215,1.0,-999.0,29,-99.99,,,0.00,weatherlink.com 1.10,2013-08-08 19:34:00,
2013-08-08 13:49:00,99.4,60.0,29.81,SSW,212,0.0,-999.0,27,-99.99,,,0.00,weatherlink.com 1.10,2013-08-08 19:49:00,
2013-08-08 14:04:00,99.9,63.0,29.81,South,186,3.0,-999.0,30,-99.99,,,0.00,weatherlink.com 1.10,2013-08-08 20:04:00,
2013-08-08 14:19:00,101.1,60.0,29.80,South,190,0.0,-999.0,26,-99.99,,,0.00,weatherlink.com 1.10,2013-08-08 20:19:00,
2013-08-08 14:34:00,100.5,60.0,29.80,SSE,165,0.0,-999.0,26,-99.99,,,0.00,weatherlink.com 1.10,2013-08-08 20:34:00,
2013-08-08 14:49:00,100.5,63.0,29.79,SE,145,0.0,-999.0,29,-99.99,,,0.00,weatherlink.com 1.10,2013-08-08 20:49:00,
2013-08-08 15:04:00,100.3,62.0,29.78,East,99,2.0,-999.0,28,-99.99,,,0.00,weatherlink.com 1.10,2013-08-08 21:04:00,
2013-08-08 15:19:00,100.1,62.0,29.78,SSE,154,0.0,-999.0,28,-99.99,,,0.00,weatherlink.com 1.10,2013-08-08 21:19:00,
2013-08-08 15:34:00,99.8,60.0,29.77,ESE,109,0.0,-999.0,27,-99.99,,,0.00,weatherlink.com 1.10,2013-08-08 21:34:00,
2013-08-08 16:04:00,100.3,61.0,29.77,ESE,117,4.0,-999.0,27,-99.99,,,0.00,weatherlink.com 1.10,2013-08-08 22:04:00,
2013-08-08 16:19:00,99.8,59.0,29.76,East,99,0.0,-999.0,26,-99.99,,,0.00,weatherlink.com 1.10,2013-08-08 22:19:00,
2013-08-08 16:34:00,99.7,59.0,29.76,SSE,154,5.0,-999.0,26,-99.99,,,0.00,weatherlink.com 1.10,2013-08-08 22:34:00,
2013-08-08 16:49:00,100.5,61.0,29.76,WSW,247,0.0,-999.0,27,-99.99,,,0.00,weatherlink.com 1.10,2013-08-08 22:49:00,
2013-08-08 17:04:00,100.1,61.0,29.76,WSW,244,0.0,-999.0,27,-99.99,,,0.00,weatherlink.com 1.10,2013-08-08 23:04:00,
2013-08-08 17:19:00,99.8,63.0,29.75,South,169,0.0,-999.0,30,-99.99,,,0.00,weatherlink.com 1.10,2013-08-08 23:19:00,
2013-08-08 17:34:00,98.3,64.0,29.75,ESE,118,1.0,-999.0,32,-99.99,,,0.00,weatherlink.com 1.10,2013-08-08 23:34:00,
2013-08-08 17:49:00,97.1,63.0,29.75,ESE,117,5.0,-999.0,32,-99.99,,,0.00,weatherlink.com 1.10,2013-08-08 23:49:00,
2013-08-08 18:34:00,95.4,63.0,29.76,ESE,118,0.0,-999.0,34,-99.99,,,0.00,weatherlink.com 1.10,2013-08-09 00:34:00,
2013-08-08 18:49:00,94.6,64.0,29.77,SE,128,0.0,-999.0,36,-99.99,,,0.00,weatherlink.com 1.10,2013-08-09 00:49:00,
2013-08-08 19:19:00,92.9,63.0,29.78,East,99,0.0,-999.0,37,-99.99,,,0.00,weatherlink.com 1.10,2013-08-09 01:19:00,
2013-08-08 19:34:00,92.4,63.0,29.79,ESE,113,0.0,-999.0,37,-99.99,,,0.00,weatherlink.com 1.10,2013-08-09 01:34:00,
2013-08-08 19:49:00,91.5,62.0,29.80,ESE,113,0.0,-999.0,38,-99.99,,,0.00,weatherlink.com 1.10,2013-08-09 01:49:00,
2013-08-08 20:19:00,90.0,62.0,29.80,ESE,113,0.0,-999.0,39,-99.99,,,0.00,weatherlink.com 1.10,2013-08-09 02:19:00,
2013-08-08 20:34:00,89.5,61.0,29.80,ESE,113,0.0,-999.0,39,-99.99,,,0.00,weatherlink.com 1.10,2013-08-09 02:34:00,
2013-08-08 20:49:00,88.8,62.0,29.80,ESE,113,0.0,-999.0,40,-99.99,,,0.00,weatherlink.com 1.10,2013-08-09 02:49:00,
2013-08-08 21:04:00,88.1,62.0,29.82,ESE,113,0.0,-999.0,41,-99.99,,,0.00,weatherlink.com 1.10,2013-08-09 03:04:00,
2013-08-08 21:19:00,87.0,62.0,29.82,ESE,113,0.0,-999.0,43,-99.99,,,0.00,weatherlink.com 1.10,2013-08-09 03:19:00,
2013-08-08 21:49:00,85.2,60.0,29.82,SSW,205,1.0,-999.0,43,-99.99,,,0.00,weatherlink.com 1.10,2013-08-09 03:49:00,
2013-08-08 22:04:00,86.2,63.0,29.83,ESE,121,0.0,-999.0,46,-99.99,,,0.00,weatherlink.com 1.10,2013-08-09 04:04:00,
2013-08-08 22:19:00,86.0,63.0,29.83,SE,128,0.0,-999.0,47,-99.99,,,0.00,weatherlink.com 1.10,2013-08-09 04:19:00,
2013-08-08 22:34:00,85.4,65.0,29.84,South,169,0.0,-999.0,50,-99.99,,,0.00,weatherlink.com 1.10,2013-08-09 04:34:00,
2013-08-08 22:49:00,84.7,66.0,29.84,ESE,118,0.0,-999.0,53,-99.99,,,0.00,weatherlink.com 1.10,2013-08-09 04:49:00,
2013-08-08 23:04:00,84.1,67.0,29.84,SE,126,0.0,-999.0,57,-99.99,,,0.00,weatherlink.com 1.10,2013-08-09 05:04:00,
2013-08-08 23:19:00,83.5,69.0,29.85,SE,138,0.0,-999.0,61,-99.99,,,0.00,weatherlink.com 1.10,2013-08-09 05:19:00,
2013-08-08 23:34:00,82.9,69.0,29.85,SE,143,0.0,-999.0,63,-99.99,,,0.00,weatherlink.com 1.10,2013-08-09 05:34:00,
2013-08-08 23:49:00,82.3,70.0,29.85,SE,134,0.0,-999.0,66,-99.99,,,0.00,weatherlink.com 1.10,2013-08-09 05:49:00,